Terminal Aerodrome Forecast
Issued by NWS Cleveland, OH

Home | Current Version | Previous Version | Text Only | Print | Product List | Glossary Off
Versions: 1 2 3 4 5 6 7 8 9 10 11 12 13 14 15 16 17 18 19 20 21

599
FTUS41 KCLE 251126
TAFTOL
TAF
KTOL 251126Z 2512/2612 34007KT 2SM BR OVC003
     FM251500 35012KT 6SM BR OVC012
     FM251800 35012KT P6SM OVC045
     FM252200 34010KT P6SM SCT070
     FM260200 02008KT P6SM SCT150
     FM260500 VRB03KT P6SM FEW250=

USA.gov is the U.S. government's official web portal to all federal, state and local government web resources and services.